Zuebak Airstrip

AYZZ · Morobe, 巴布亚新几内亚

罗盘
风向 的 风向 090° Zuebak Airstrip 14/32
风向 到 风: 10 kt, 阵阵 15 kt, 3 beaufort

6 kt

8 kt
改变
0 1.000 2.000 3.000 4.000 5.000
SCT 2.000 ft
SCT 5.000 ft
METAR AYNZ 050500Z 09010G15KT 9999 HZ SCT020 SCT050 30/22 Q1005

METAR Zuebak Airstrip - AYZZ

Zuebak Airstrip是,巴布亚新几内亚中的小机场。 该机场有一条跑道: 14/32. 该领域的国际民航组织标志是AYZZ.

这份报告是针对2022年12月5日 15:00, 当地时间在Nadzab Airport进行的。

机场观察

风向为090°,速度为10 kt。 已测得15 kt的阵风。

可见度为10 km 或者更多。

有疏云,零星散落的云朵在2.000 ft的高度 和 疏云,零星散落的云朵在5.000 ft的高度。 没有观察到天花板。

当前天气为阴霾。 温度和风寒是30 °C。 热指数为33。 露点为22 °C,相对湿度为62%。 海平面上的气压为1005 hPa (QNH)。

白天

今天,太阳从05:50升起,在18:18降落。 这适用于Zuebak Airstrip,世界夏令时可能有所不同。 当地时间与世界标准时间之间的时差为+10 小时。 当前,没有夏令时有效。

公司介绍

我们没有关于这个机场的公司信息。

体会

到Vliegles.nl去找飞行课程,跳伞和其他飞行体验。 浏览页面,了解Zuebak Airstrip附近所有可用的活动。 你也可以使用搜索功能来寻找你所在地附近的特定飞行课程、跳伞或其他飞行体验。

跑道

Id 标题 侧风 逆风 侧风 %
14/32 140°-320° 8-11 kt 6-10 kt 77 %

逆风成分最大的方向会被突出显示,并用于横风计算。 这并不一定意味着这个方向在使用。

乌云

2.000 ft SCT 疏云,零星散落的云朵
5.000 ft SCT 疏云,零星散落的云朵

温度 & 天气

天气 阴霾
温度 30 °C
露点 22 °C
相对湿度 62%
热度指数 33 °C
Kp-index 1 (0-9)

白天

日出
05:48
中午
12:03
日落
18:18 (2:52)

小工具

你想在你的网站上有一个关于Zuebak Airstrip的当前航空天气(METAR)的小部件吗?

显示HTML代码

我们和第三方通过cookies跟踪您在我们网站上的互联网行为。如果你继续,我们认为你同意我们的饼干政策